Terminal Aerodrome Forecast
Issued by NWS Green Bay, WI

Home | Current Version | Previous Version | Graphics & Text | Print | Product List | Glossary On
Versions: 1 2 3 4 5 6 7 8 9 10 11 12 13 14 15 16 17 18 19 20 21 22 23 24 25 26 27 28 29 30 31 32 33 34 35 36 37 38 39 40
264
FTUS43 KGRB 281423 AAB
TAFGRB
TAF AMD
KGRB 281423Z 2814/2912 05012KT P6SM VCSH SCT010 OVC040
      TEMPO 2815/2818 5SM -RA BR BKN010 OVC020
     FM281900 05009G15KT P6SM VCSH SCT008 BKN020
     FM282200 04010KT P6SM FEW020 BKN050
     FM290400 03007KT P6SM SCT060 BKN100=

USA.gov is the U.S. government's official web portal to all federal, state and local government web resources and services.